createdAt,value
2022-09-13T00:00:52.303Z,7.50
2022-09-13T00:03:21.304Z,7.80
2022-09-13T00:05:50.204Z,7.13
2022-09-13T00:08:19.118Z,8.10
2022-09-13T00:10:48.178Z,7.70
2022-09-13T00:13:18.904Z,8.03
2022-09-13T00:15:48.621Z,7.93
2022-09-13T00:18:18.527Z,7.83
2022-09-13T00:20:47.089Z,7.93
2022-09-13T00:23:15.386Z,7.30
2022-09-13T00:25:43.431Z,7.43
2022-09-13T00:28:11.508Z,7.63
2022-09-13T00:30:40.906Z,7.47
2022-09-13T00:33:08.932Z,7.53
2022-09-13T00:35:36.952Z,7.33
2022-09-13T00:38:04.966Z,7.27
2022-09-13T00:40:37.659Z,7.17
2022-09-13T00:43:05.662Z,7.90
2022-09-13T00:45:33.783Z,7.63
2022-09-13T00:48:07.739Z,7.33
2022-09-13T00:50:38.551Z,8.37
2022-09-13T00:53:15.486Z,8.13
2022-09-13T00:55:47.739Z,8.47
2022-09-13T00:58:19.769Z,8.17
2022-09-13T01:00:48.932Z,8.30
2022-09-13T01:03:22.444Z,8.93
2022-09-13T01:05:56.147Z,8.33
2022-09-13T01:08:24.542Z,8.93
2022-09-13T01:10:55.197Z,8.30
2022-09-13T01:13:26.168Z,7.97
2022-09-13T01:15:54.432Z,8.57
2022-09-13T01:18:23.974Z,7.60
2022-09-13T01:21:25.308Z,7.90
2022-09-13T01:24:29.717Z,8.13
2022-09-13T01:27:31.239Z,8.37
2022-09-13T01:30:09.715Z,7.90
2022-09-13T01:33:18.049Z,8.27
2022-09-13T01:36:08.588Z,8.47
2022-09-13T01:38:54.355Z,7.50
2022-09-13T01:41:37.591Z,7.70
2022-09-13T01:44:16.356Z,8.23
2022-09-13T01:46:50.856Z,8.57
2022-09-13T01:49:24.227Z,8.40
2022-09-13T01:51:57.559Z,8.43
2022-09-13T01:54:33.719Z,8.83
2022-09-13T01:57:07.454Z,9.10
2022-09-13T01:59:50.616Z,8.97
2022-09-13T02:02:24.401Z,8.07
2022-09-13T02:04:57.535Z,8.43
2022-09-13T02:07:30.484Z,8.33
2022-09-13T02:10:03.330Z,8.07
2022-09-13T02:12:35.803Z,8.37
2022-09-13T02:15:10.264Z,8.57
2022-09-13T02:17:43.898Z,8.37
2022-09-13T02:20:17.021Z,8.57
2022-09-13T02:22:49.804Z,8.97
2022-09-13T02:25:22.131Z,9.57
2022-09-13T02:27:53.953Z,8.77
2022-09-13T02:30:22.359Z,9.47
2022-09-13T02:32:56.726Z,9.90
2022-09-13T02:35:29.543Z,9.80
2022-09-13T02:38:03.512Z,9.07
2022-09-13T02:40:38.504Z,9.70
2022-09-13T02:43:12.648Z,9.63
2022-09-13T02:45:48.910Z,9.67
2022-09-13T02:48:26.700Z,8.50
2022-09-13T02:51:01.512Z,8.40
2022-09-13T02:53:35.567Z,8.40
2022-09-13T02:56:11.203Z,9.07
2022-09-13T02:58:47.091Z,9.10
2022-09-13T03:01:15.877Z,9.23
2022-09-13T03:03:45.536Z,9.17
2022-09-13T03:06:13.591Z,8.60
2022-09-13T03:08:41.748Z,8.40
2022-09-13T03:11:18.676Z,8.87
2022-09-13T03:14:18.825Z,8.90
2022-09-13T03:17:01.578Z,8.83
2022-09-13T03:19:49.424Z,8.77
2022-09-13T03:22:38.051Z,8.67
2022-09-13T03:25:14.043Z,8.03
2022-09-13T03:27:53.846Z,8.60
2022-09-13T03:30:22.080Z,8.27
2022-09-13T03:32:54.248Z,8.50
2022-09-13T03:35:30.775Z,9.07
2022-09-13T03:38:03.118Z,8.60
2022-09-13T03:40:41.210Z,9.13
2022-09-13T03:43:14.347Z,8.87
2022-09-13T03:45:47.595Z,8.53
2022-09-13T03:48:16.849Z,9.13
2022-09-13T03:50:47.619Z,9.10
2022-09-13T03:53:20.389Z,8.77
2022-09-13T03:55:48.577Z,9.07
2022-09-13T03:58:18.790Z,8.67
2022-09-13T04:00:47.661Z,8.20
2022-09-13T04:03:16.387Z,8.57
2022-09-13T04:05:46.682Z,7.97
2022-09-13T04:08:14.757Z,8.27
2022-09-13T04:10:42.787Z,8.77
2022-09-13T04:13:10.824Z,8.10
2022-09-13T04:15:38.842Z,7.87
2022-09-13T04:18:06.963Z,8.77
2022-09-13T04:20:36.963Z,7.80
2022-09-13T04:23:06.383Z,8.47
2022-09-13T04:25:34.396Z,9.43
2022-09-13T04:28:02.815Z,9.10
2022-09-13T04:30:30.997Z,8.93
2022-09-13T04:32:59.645Z,9.17
2022-09-13T04:35:28.922Z,10.37
2022-09-13T04:37:58.268Z,10.43
2022-09-13T04:40:27.738Z,9.63
2022-09-13T04:42:55.781Z,9.90
2022-09-13T04:45:24.108Z,10.80
2022-09-13T04:47:53.905Z,9.63
2022-09-13T04:50:22.276Z,10.30
2022-09-13T04:52:50.356Z,9.70
2022-09-13T04:55:18.502Z,9.13
2022-09-13T04:57:47.934Z,8.63
2022-09-13T05:00:16.418Z,9.33
2022-09-13T05:02:44.589Z,10.27
2022-09-13T05:05:12.635Z,11.40
2022-09-13T05:07:40.828Z,10.67
2022-09-13T05:10:10.305Z,10.10
2022-09-13T05:12:38.320Z,10.93
2022-09-13T05:15:09.164Z,10.47
2022-09-13T05:17:37.348Z,10.30
2022-09-13T05:20:06.567Z,10.63
2022-09-13T05:22:34.570Z,11.73
2022-09-13T05:25:02.641Z,10.60
2022-09-13T05:27:30.673Z,11.17
2022-09-13T05:29:58.725Z,11.97
2022-09-13T05:32:28.442Z,11.23
2022-09-13T05:34:56.488Z,10.03
2022-09-13T05:37:24.539Z,10.03
2022-09-13T05:40:11.717Z,10.90
2022-09-13T05:42:40.510Z,10.93
2022-09-13T05:45:10.433Z,11.77
2022-09-13T05:47:39.932Z,11.03
2022-09-13T05:50:10.811Z,11.50
2022-09-13T05:52:41.649Z,12.03
2022-09-13T05:55:10.756Z,11.53
2022-09-13T05:57:38.775Z,12.47
2022-09-13T06:00:07.775Z,12.63
2022-09-13T06:02:35.851Z,12.93
2022-09-13T06:05:06.348Z,12.63
2022-09-13T06:07:35.266Z,13.17
2022-09-13T06:10:04.891Z,12.50
2022-09-13T06:12:32.883Z,16.37
2022-09-13T06:15:00.946Z,16.30
2022-09-13T06:17:29.104Z,15.67
2022-09-13T06:19:57.207Z,13.17
2022-09-13T06:22:33.051Z,13.57
2022-09-13T06:25:01.360Z,12.37
2022-09-13T06:27:31.594Z,12.63
2022-09-13T06:29:59.684Z,12.37
2022-09-13T06:32:27.747Z,13.03
2022-09-13T06:34:55.836Z,12.23
2022-09-13T06:37:23.948Z,12.27
2022-09-13T06:39:53.411Z,12.03
2022-09-13T06:42:21.462Z,12.97
2022-09-13T06:44:49.532Z,14.57
2022-09-13T06:47:17.651Z,14.83
2022-09-13T06:49:45.816Z,14.13
2022-09-13T06:52:13.823Z,12.77
2022-09-13T06:54:41.848Z,14.43
2022-09-13T06:57:11.282Z,13.13
2022-09-13T06:59:39.321Z,15.17
2022-09-13T07:02:07.397Z,16.90
2022-09-13T07:04:35.468Z,15.77
2022-09-13T07:07:03.536Z,15.90
2022-09-13T07:09:31.584Z,15.30
2022-09-13T07:11:59.605Z,14.30
2022-09-13T07:14:30.450Z,14.45
2022-09-13T07:16:58.680Z,14.55
2022-09-13T07:19:28.732Z,15.40
2022-09-13T07:21:57.782Z,13.75
2022-09-13T07:24:27.253Z,13.93
2022-09-13T07:26:55.372Z,14.50
2022-09-13T07:29:24.748Z,13.70
2022-09-13T07:31:56.708Z,14.27
2022-09-13T07:34:26.228Z,14.25
2022-09-13T07:36:54.632Z,15.52
2022-09-13T07:39:24.330Z,13.95
2022-09-13T07:41:53.752Z,13.90
2022-09-13T07:44:22.837Z,13.07
2022-09-13T07:46:50.913Z,14.02
2022-09-13T07:49:21.007Z,14.68
2022-09-13T07:51:51.409Z,13.93
2022-09-13T07:54:20.813Z,13.82
2022-09-13T07:56:50.445Z,13.48
2022-09-13T07:59:19.583Z,14.40
2022-09-13T08:01:49.493Z,14.80
2022-09-13T08:04:21.729Z,13.68
2022-09-13T08:06:50.043Z,14.43
2022-09-13T08:09:18.675Z,14.05
2022-09-13T08:11:48.429Z,13.23
2022-09-13T08:14:19.000Z,16.65
2022-09-13T08:16:47.295Z,17.63
2022-09-13T08:19:17.744Z,22.73
2022-09-13T08:21:48.333Z,18.42
2022-09-13T08:24:18.914Z,13.40
2022-09-13T08:26:47.707Z,13.73
2022-09-13T08:29:16.894Z,13.88
2022-09-13T08:31:45.172Z,17.08
2022-09-13T08:34:14.722Z,14.43
2022-09-13T08:36:43.266Z,14.70
2022-09-13T08:39:14.196Z,13.50
2022-09-13T08:42:12.023Z,12.60
2022-09-13T08:44:46.574Z,13.15
2022-09-13T08:47:31.562Z,13.82
2022-09-13T08:50:07.658Z,12.82
2022-09-13T08:52:41.572Z,13.35
2022-09-13T08:55:25.184Z,12.70
2022-09-13T08:57:59.944Z,13.45
2022-09-13T09:00:36.860Z,12.77
2022-09-13T09:03:16.933Z,12.20
2022-09-13T09:05:49.103Z,12.30
2022-09-13T09:08:29.062Z,13.45
2022-09-13T09:11:02.552Z,12.93
2022-09-13T09:13:33.832Z,13.48
2022-09-13T09:16:06.739Z,14.23
2022-09-13T09:18:37.510Z,13.18
2022-09-13T09:21:07.895Z,14.32
2022-09-13T09:23:40.421Z,14.05
2022-09-13T09:26:18.058Z,14.60
2022-09-13T09:28:48.752Z,13.90
2022-09-13T09:31:23.618Z,13.77
2022-09-13T09:34:05.045Z,13.55
2022-09-13T09:36:40.396Z,13.95
2022-09-13T09:39:13.997Z,12.80
2022-09-13T09:41:44.908Z,12.52
2022-09-13T09:44:19.831Z,13.00
2022-09-13T09:46:51.575Z,13.07
2022-09-13T09:49:41.012Z,11.82
2022-09-13T09:52:14.711Z,11.20
2022-09-13T09:54:42.889Z,11.38
2022-09-13T09:57:12.323Z,11.05
2022-09-13T09:59:40.388Z,11.80
2022-09-13T10:02:18.681Z,11.48
2022-09-13T10:04:57.391Z,10.43
2022-09-13T10:07:33.317Z,11.65
2022-09-13T10:10:04.054Z,10.90
2022-09-13T10:12:36.857Z,10.68
2022-09-13T10:15:08.312Z,9.93
2022-09-13T10:17:37.039Z,10.52
2022-09-13T10:20:23.448Z,10.45
2022-09-13T10:23:21.961Z,10.85
2022-09-13T10:26:04.476Z,10.43
2022-09-13T10:28:37.214Z,10.30
2022-09-13T10:31:09.235Z,10.63
2022-09-13T10:33:41.055Z,9.27
2022-09-13T10:36:29.555Z,11.20
2022-09-13T10:39:07.433Z,10.68
2022-09-13T10:41:42.285Z,10.23
2022-09-13T10:44:27.906Z,9.48
2022-09-13T10:46:56.397Z,9.88
2022-09-13T10:49:38.570Z,10.13
2022-09-13T10:52:36.011Z,10.30
2022-09-13T10:55:26.687Z,9.70
2022-09-13T10:57:56.052Z,9.32
2022-09-13T11:00:32.405Z,9.98
2022-09-13T11:03:24.643Z,10.20
2022-09-13T11:06:04.207Z,9.88
2022-09-13T11:08:43.869Z,9.55
2022-09-13T11:11:23.521Z,8.55
2022-09-13T11:14:08.532Z,9.13
2022-09-13T11:16:54.539Z,8.60
2022-09-13T11:19:56.879Z,8.23
2022-09-13T11:23:02.204Z,8.43
2022-09-13T11:25:49.056Z,7.15
2022-09-13T11:28:27.024Z,7.40
2022-09-13T11:31:08.487Z,7.03
2022-09-13T11:33:52.137Z,7.03
2022-09-13T11:36:51.435Z,7.68
2022-09-13T11:39:32.068Z,7.05
2022-09-13T11:42:19.200Z,6.50
2022-09-13T11:45:07.488Z,6.90
2022-09-13T11:47:46.506Z,4.45
2022-09-13T11:50:30.488Z,4.22
2022-09-13T11:53:16.947Z,4.28
2022-09-13T11:55:49.072Z,4.03
2022-09-13T11:58:24.784Z,3.47
2022-09-13T12:00:59.359Z,3.60
2022-09-13T12:03:32.495Z,3.17
2022-09-13T12:06:05.985Z,4.10
2022-09-13T12:08:37.838Z,3.67
2022-09-13T12:11:15.816Z,3.90
2022-09-13T12:13:48.266Z,4.10
2022-09-13T12:16:22.854Z,4.07
2022-09-13T12:18:54.143Z,4.28
2022-09-13T12:21:27.122Z,4.03
2022-09-13T12:24:03.481Z,4.20
2022-09-13T12:26:36.917Z,5.00
2022-09-13T12:29:14.224Z,4.55
2022-09-13T12:31:42.377Z,4.43
2022-09-13T12:34:17.341Z,4.28
2022-09-13T12:37:11.650Z,3.95
2022-09-13T12:39:50.574Z,3.85
2022-09-13T12:42:40.418Z,4.22
2022-09-13T12:45:31.045Z,5.40
2022-09-13T12:48:26.180Z,5.82
2022-09-13T12:51:07.224Z,4.30
2022-09-13T12:54:11.060Z,4.22
2022-09-13T12:56:57.190Z,3.67
2022-09-13T12:59:57.491Z,3.53
2022-09-13T13:02:34.462Z,3.33
2022-09-13T13:05:06.431Z,3.30
2022-09-13T13:07:38.208Z,3.42
2022-09-13T13:10:08.214Z,3.20
2022-09-13T13:12:39.856Z,3.15
2022-09-13T13:15:29.270Z,3.30
2022-09-13T13:18:00.156Z,3.10
2022-09-13T13:20:48.863Z,2.90
2022-09-13T13:23:24.993Z,3.08
2022-09-13T13:26:07.789Z,2.80
2022-09-13T13:29:07.526Z,3.10
2022-09-13T13:31:38.334Z,3.20
2022-09-13T13:34:30.350Z,2.58
2022-09-13T13:37:02.192Z,3.17
2022-09-13T13:40:11.172Z,2.90
2022-09-13T13:42:39.691Z,3.10
2022-09-13T13:45:24.099Z,3.38
2022-09-13T13:48:08.482Z,3.15
2022-09-13T13:51:16.449Z,3.28
2022-09-13T13:53:49.801Z,3.20
2022-09-13T13:56:29.366Z,3.03
2022-09-13T13:59:01.471Z,3.17
2022-09-13T14:01:33.643Z,3.10
2022-09-13T14:04:55.222Z,2.97
2022-09-13T14:08:02.637Z,3.30
2022-09-13T14:10:38.669Z,3.25
2022-09-13T14:13:21.115Z,3.35
2022-09-13T14:15:56.385Z,3.30
2022-09-13T14:18:48.436Z,3.40
2022-09-13T14:21:22.406Z,2.90
2022-09-13T14:23:53.672Z,2.88
2022-09-13T14:26:22.809Z,2.80
2022-09-13T14:28:50.893Z,3.00
2022-09-13T14:31:21.230Z,3.30
2022-09-13T14:33:49.693Z,3.30
2022-09-13T14:36:21.437Z,3.88
2022-09-13T14:38:55.316Z,3.50
2022-09-13T14:41:32.820Z,3.90
2022-09-13T14:44:23.697Z,4.28
2022-09-13T14:47:01.056Z,4.78
2022-09-13T14:49:34.457Z,5.50
2022-09-13T14:52:06.038Z,5.55
2022-09-13T14:54:39.935Z,4.50
2022-09-13T14:57:10.722Z,4.93
2022-09-13T14:59:45.669Z,4.38
2022-09-13T15:02:21.751Z,4.57
2022-09-13T15:04:52.817Z,4.13
2022-09-13T15:07:25.293Z,4.15
2022-09-13T15:10:00.791Z,4.10
2022-09-13T15:12:30.036Z,4.40
2022-09-13T15:15:26.289Z,4.43
2022-09-13T15:17:59.388Z,4.60
2022-09-13T15:20:29.711Z,3.95
2022-09-13T15:22:58.395Z,4.30
2022-09-13T15:25:29.783Z,4.03
2022-09-13T15:27:59.016Z,4.78
2022-09-13T15:30:30.196Z,4.28
2022-09-13T15:33:23.140Z,3.90
2022-09-13T15:35:52.597Z,4.20
2022-09-13T15:38:28.616Z,4.00
2022-09-13T15:41:03.499Z,4.10
2022-09-13T15:43:32.116Z,4.18
2022-09-13T15:46:01.842Z,4.28
2022-09-13T15:48:32.372Z,4.13
2022-09-13T15:51:09.862Z,3.88
2022-09-13T15:53:39.004Z,4.10
2022-09-13T15:56:10.320Z,4.60
2022-09-13T15:58:38.413Z,3.88
2022-09-13T16:01:07.241Z,3.67
2022-09-13T16:03:35.532Z,3.50
2022-09-13T16:06:03.604Z,3.50
2022-09-13T16:08:31.680Z,3.45
2022-09-13T16:10:59.747Z,3.55
2022-09-13T16:13:29.202Z,3.20
2022-09-13T16:15:58.240Z,3.45
2022-09-13T16:18:26.752Z,3.28
2022-09-13T16:20:54.998Z,3.40
2022-09-13T16:23:22.999Z,3.30
2022-09-13T16:25:53.905Z,3.30
2022-09-13T16:28:22.017Z,3.53
2022-09-13T16:30:52.037Z,3.40
2022-09-13T16:33:20.552Z,3.70
2022-09-13T16:35:48.943Z,3.78
2022-09-13T16:38:18.178Z,3.88
2022-09-13T16:40:46.377Z,3.40
2022-09-13T16:43:14.532Z,3.10
2022-09-13T16:45:44.944Z,3.33
2022-09-13T16:48:14.359Z,3.80
2022-09-13T16:50:42.936Z,3.70
2022-09-13T16:53:10.996Z,4.18
2022-09-13T16:55:39.621Z,3.88
2022-09-13T16:58:07.683Z,4.07
2022-09-13T17:00:35.812Z,4.43
2022-09-13T17:03:04.152Z,4.07
2022-09-13T17:05:33.634Z,5.32
2022-09-13T17:08:01.732Z,12.65
2022-09-13T17:10:29.921Z,10.55
2022-09-13T17:12:57.935Z,9.82
2022-09-13T17:15:26.028Z,8.27
2022-09-13T17:17:54.165Z,5.90
2022-09-13T17:20:22.707Z,7.15
2022-09-13T17:22:52.174Z,4.03
2022-09-13T17:25:20.945Z,3.70
2022-09-13T17:27:49.144Z,4.00
2022-09-13T17:30:17.299Z,3.80
2022-09-13T17:32:45.362Z,4.00
2022-09-13T17:35:14.158Z,3.85
2022-09-13T17:37:42.211Z,3.88
2022-09-13T17:40:11.910Z,3.65
2022-09-13T17:42:39.980Z,4.22
2022-09-13T17:45:08.691Z,3.65
2022-09-13T17:47:36.785Z,3.90
2022-09-13T17:50:05.158Z,4.00
2022-09-13T17:52:35.036Z,3.70
2022-09-13T17:55:03.416Z,3.78
2022-09-13T17:57:32.864Z,3.85
2022-09-13T18:00:00.915Z,4.55
2022-09-13T18:02:29.614Z,5.40
2022-09-13T18:04:58.363Z,4.18
2022-09-13T18:07:27.613Z,4.18
2022-09-13T18:09:55.782Z,4.05
2022-09-13T18:12:23.872Z,4.28
2022-09-13T18:14:53.275Z,4.05
2022-09-13T18:17:21.320Z,3.90
2022-09-13T18:19:49.366Z,3.85
2022-09-13T18:22:17.566Z,4.13
2022-09-13T18:24:45.631Z,3.78
2022-09-13T18:27:13.650Z,3.50
2022-09-13T18:29:42.640Z,4.13
2022-09-13T18:32:12.127Z,3.90
2022-09-13T18:34:42.168Z,4.13
2022-09-13T18:37:14.441Z,3.72
2022-09-13T18:39:42.716Z,3.92
2022-09-13T18:42:10.936Z,4.10
2022-09-13T18:44:39.081Z,3.70
2022-09-13T18:47:08.859Z,3.95
2022-09-13T18:49:38.251Z,4.00
2022-09-13T18:52:06.747Z,3.78
2022-09-13T18:54:34.826Z,3.65
2022-09-13T18:57:02.900Z,3.97
2022-09-13T18:59:32.183Z,4.18
2022-09-13T19:02:00.588Z,3.88
2022-09-13T19:04:28.748Z,3.50
2022-09-13T19:06:58.338Z,3.70
2022-09-13T19:09:26.417Z,4.07
2022-09-13T19:11:55.146Z,4.10
2022-09-13T19:14:24.381Z,4.00
2022-09-13T19:16:53.514Z,3.92
2022-09-13T19:19:22.345Z,3.90
2022-09-13T19:21:50.734Z,4.10
2022-09-13T19:24:21.055Z,4.30
2022-09-13T19:26:51.894Z,3.85
2022-09-13T19:29:22.698Z,3.88
2022-09-13T19:31:52.719Z,3.85
2022-09-13T19:34:22.949Z,4.13
2022-09-13T19:36:57.279Z,3.72
2022-09-13T19:39:30.065Z,3.70
2022-09-13T19:41:59.688Z,4.10
2022-09-13T19:44:28.280Z,4.15
2022-09-13T19:47:23.570Z,4.28
2022-09-13T19:49:44.543Z,4.70
2022-09-13T19:52:12.604Z,3.95
2022-09-13T19:54:42.113Z,3.95
2022-09-13T19:57:10.343Z,4.07
2022-09-13T19:59:38.723Z,3.97
2022-09-13T20:02:07.101Z,3.90
2022-09-13T20:04:35.275Z,3.92
2022-09-13T20:07:03.406Z,4.05
2022-09-13T20:09:32.018Z,4.60
2022-09-13T20:12:01.742Z,4.30
2022-09-13T20:14:29.998Z,4.10
2022-09-13T20:16:58.927Z,4.07
2022-09-13T20:19:46.373Z,3.80
2022-09-13T20:22:15.353Z,4.43
2022-09-13T20:24:43.412Z,3.72
2022-09-13T20:27:13.500Z,4.18
2022-09-13T20:29:41.565Z,4.22
2022-09-13T20:32:11.070Z,4.10
2022-09-13T20:34:39.286Z,4.20
2022-09-13T20:37:07.340Z,3.90
2022-09-13T20:39:35.443Z,4.00
2022-09-13T20:42:03.494Z,3.78
2022-09-13T20:44:32.972Z,3.90
2022-09-13T20:47:01.782Z,4.20
2022-09-13T20:49:30.271Z,3.85
2022-09-13T20:51:58.765Z,4.05
2022-09-13T20:54:26.922Z,4.50
2022-09-13T20:56:54.984Z,4.20
2022-09-13T20:59:23.109Z,4.15
2022-09-13T21:01:52.630Z,4.30
2022-09-13T21:04:21.022Z,4.18
2022-09-13T21:07:07.446Z,4.50
2022-09-13T21:09:36.937Z,4.22
2022-09-13T21:12:09.009Z,4.20
2022-09-13T21:14:37.036Z,4.40
2022-09-13T21:17:07.814Z,4.35
2022-09-13T21:19:36.019Z,4.20
2022-09-13T21:22:04.226Z,4.40
2022-09-13T21:24:32.637Z,4.63
2022-09-13T21:27:00.739Z,4.20
2022-09-13T21:29:28.900Z,4.25
2022-09-13T21:31:56.965Z,4.80
2022-09-13T21:34:27.391Z,4.80
2022-09-13T21:36:56.937Z,3.88
2022-09-13T21:39:25.069Z,4.35
2022-09-13T21:41:53.167Z,4.70
2022-09-13T21:44:21.199Z,4.40
2022-09-13T21:46:51.443Z,4.53
2022-09-13T21:49:20.221Z,4.20
2022-09-13T21:51:53.106Z,4.40
2022-09-13T21:54:21.876Z,4.82
2022-09-13T21:56:51.866Z,4.05
2022-09-13T21:59:21.792Z,4.15
2022-09-13T22:01:52.029Z,4.80
2022-09-13T22:04:22.745Z,4.95
2022-09-13T22:06:53.759Z,5.10
2022-09-13T22:09:24.698Z,5.32
2022-09-13T22:11:52.931Z,5.32
2022-09-13T22:14:22.602Z,4.78
2022-09-13T22:16:52.775Z,4.95
2022-09-13T22:19:23.597Z,4.57
2022-09-13T22:21:56.337Z,4.97
2022-09-13T22:24:26.634Z,5.65
2022-09-13T22:26:56.610Z,5.68
2022-09-13T22:29:25.311Z,6.60
2022-09-13T22:31:53.956Z,6.05
2022-09-13T22:34:24.365Z,6.65
2022-09-13T22:36:54.745Z,6.28
2022-09-13T22:39:23.086Z,7.32
2022-09-13T22:41:51.246Z,6.80
2022-09-13T22:44:19.273Z,8.18
2022-09-13T22:46:48.043Z,8.32
2022-09-13T22:49:17.792Z,7.47
2022-09-13T22:51:46.983Z,8.98
2022-09-13T22:54:17.811Z,7.68
2022-09-13T22:56:47.856Z,8.27
2022-09-13T22:59:18.065Z,8.35
2022-09-13T23:01:46.551Z,9.10
2022-09-13T23:04:14.742Z,9.13
2022-09-13T23:06:44.855Z,8.52
2022-09-13T23:09:17.784Z,8.68
2022-09-13T23:11:46.542Z,9.25
2022-09-13T23:14:16.756Z,8.82
2022-09-13T23:16:46.694Z,9.48
2022-09-13T23:19:15.770Z,8.43
2022-09-13T23:21:44.552Z,10.05
2022-09-13T23:24:14.714Z,9.80
2022-09-13T23:26:45.257Z,8.65
2022-09-13T23:29:15.470Z,10.55
2022-09-13T23:31:44.348Z,9.55
2022-09-13T23:34:13.848Z,10.48
2022-09-13T23:36:44.021Z,7.72
2022-09-13T23:39:16.454Z,7.22
2022-09-13T23:41:47.195Z,7.65
2022-09-13T23:44:15.443Z,7.90
2022-09-13T23:46:43.761Z,7.80
2022-09-13T23:49:11.822Z,7.85
2022-09-13T23:51:39.945Z,7.82
2022-09-13T23:54:08.634Z,9.15
2022-09-13T23:56:37.253Z,8.73
2022-09-13T23:59:07.422Z,9.52
